LIBP/PSR METAR and TAF weather

Enter ICAO airport designator
Station Type Date Time Source
LIBP METAR 2022/01/23 11:50 UTC NOAA

LIBP 231150Z AUTO VRB02KT 9999 NCD 11/M00 Q1029


Station Type Date Time Source
LIBP Decoded METAR 2022/01/23 11:50 UTC NOAA

Pescara, Italy (LIBP) 42-26N 014-12E 11M
Jan 23, 2022 - 06:50 AM EST / 2022.01.23 1150 UTC
Wind: Variable at 2 MPH (2 KT):0
Visibility: greater than 7 mile(s):0
Temperature: 51 F (11 C)
Dew Point: 32 F (0 C)
Relative Humidity: 46%
Pressure (altimeter): 30.39 in. Hg (1029 hPa)
ob: LIBP 231150Z AUTO VRB02KT 9999 NCD 11/M00 Q1029
cycle: 12

Station Type Date Time Source
LIBP TAF 2022/01/23 12:21 UTC NOAA

TAF LIBP 231100Z 2312/2412 28007KT 9999 SCT030
BECMG 2400/2403 03012KT RA

Example: see airport list